createdAt,value
2018-12-26T00:00:34.176Z,25.10
2018-12-26T00:03:07.147Z,25.60
2018-12-26T00:05:42.731Z,25.60
2018-12-26T00:08:16.014Z,25.80
2018-12-26T00:10:50.488Z,30.00
2018-12-26T00:13:24.156Z,29.40
2018-12-26T00:15:58.220Z,28.80
2018-12-26T00:18:31.097Z,28.30
2018-12-26T00:21:05.013Z,28.90
2018-12-26T00:23:37.849Z,28.30
2018-12-26T00:26:10.752Z,28.70
2018-12-26T00:28:44.985Z,27.90
2018-12-26T00:31:17.862Z,27.60
2018-12-26T00:33:51.774Z,27.90
2018-12-26T00:36:24.445Z,27.20
2018-12-26T00:38:57.449Z,27.30
2018-12-26T00:41:30.305Z,28.70
2018-12-26T00:44:03.380Z,29.10
2018-12-26T00:46:36.190Z,28.80
2018-12-26T00:49:10.394Z,28.70
2018-12-26T00:51:43.055Z,28.70
2018-12-26T00:54:16.962Z,28.20
2018-12-26T00:56:49.798Z,27.70
2018-12-26T00:59:22.858Z,27.60
2018-12-26T01:01:55.761Z,29.30
2018-12-26T01:04:28.743Z,28.50
2018-12-26T01:07:01.718Z,28.40
2018-12-26T01:09:35.147Z,28.10
2018-12-26T01:12:08.324Z,28.20
2018-12-26T01:14:42.271Z,28.30
2018-12-26T01:17:15.204Z,28.00
2018-12-26T01:19:48.744Z,28.10
2018-12-26T01:22:50.298Z,28.20
2018-12-26T01:25:19.968Z,27.90
2018-12-26T01:27:52.856Z,28.00
2018-12-26T01:30:26.649Z,28.00
2018-12-26T01:33:02.636Z,28.20
2018-12-26T01:35:36.075Z,28.10
2018-12-26T01:38:08.964Z,28.00
2018-12-26T01:40:42.514Z,28.20
2018-12-26T01:43:19.018Z,27.80
2018-12-26T01:45:51.934Z,27.70
2018-12-26T01:48:24.880Z,27.60
2018-12-26T01:50:57.930Z,27.50
2018-12-26T01:53:30.799Z,27.30
2018-12-26T01:56:03.914Z,27.10
2018-12-26T01:58:37.578Z,27.20
2018-12-26T02:01:10.618Z,26.80
2018-12-26T02:03:44.442Z,27.00
2018-12-26T02:06:17.164Z,27.10
2018-12-26T02:08:50.053Z,27.20
2018-12-26T02:11:23.007Z,26.90
2018-12-26T02:13:56.050Z,27.30
2018-12-26T02:16:29.369Z,27.60
2018-12-26T02:19:02.217Z,27.60
2018-12-26T02:21:35.474Z,27.70
2018-12-26T02:24:08.510Z,27.90
2018-12-26T02:26:41.634Z,28.10
2018-12-26T02:29:14.476Z,28.00
2018-12-26T02:31:48.802Z,28.30
2018-12-26T02:34:21.511Z,28.10
2018-12-26T02:36:55.320Z,28.00
2018-12-26T02:39:28.275Z,27.80
2018-12-26T02:42:01.988Z,27.80
2018-12-26T02:44:35.099Z,27.70
2018-12-26T02:47:08.202Z,27.40
2018-12-26T02:49:41.093Z,27.40
2018-12-26T02:52:15.147Z,27.40
2018-12-26T02:54:48.155Z,27.20
2018-12-26T02:57:21.205Z,27.10
2018-12-26T02:59:54.191Z,26.90
2018-12-26T03:02:27.393Z,26.80
2018-12-26T03:05:00.601Z,26.60
2018-12-26T03:07:34.461Z,26.80
2018-12-26T03:10:07.855Z,27.00
2018-12-26T03:12:41.329Z,26.90
2018-12-26T03:15:15.236Z,26.80
2018-12-26T03:17:49.595Z,26.60
2018-12-26T03:20:22.419Z,26.50
2018-12-26T03:22:55.591Z,26.30
2018-12-26T03:25:28.690Z,25.60
2018-12-26T03:28:01.867Z,25.20
2018-12-26T03:30:35.276Z,25.30
2018-12-26T03:33:08.140Z,25.20
2018-12-26T03:35:42.227Z,25.10
2018-12-26T03:38:15.400Z,24.90
2018-12-26T03:40:48.532Z,24.60
2018-12-26T03:43:21.222Z,24.50
2018-12-26T03:45:55.632Z,24.70
2018-12-26T03:48:30.371Z,24.60
2018-12-26T03:51:03.403Z,24.70
2018-12-26T03:53:37.482Z,24.50
2018-12-26T03:56:10.328Z,24.30
2018-12-26T03:58:43.466Z,24.30
2018-12-26T04:01:16.525Z,24.40
